sensor_id;sensor_type;location;lat;lon;timestamp;temperature;humidity
30148;DHT22;16960;49.404;8.248;2022-12-29T00:00:02;20.10;39.00
30148;DHT22;16960;49.404;8.248;2022-12-29T00:02:31;20.10;39.00
30148;DHT22;16960;49.404;8.248;2022-12-29T00:04:58;20.10;39.10
30148;DHT22;16960;49.404;8.248;2022-12-29T00:07:25;20.00;39.10
30148;DHT22;16960;49.404;8.248;2022-12-29T00:09:52;20.00;39.20
30148;DHT22;16960;49.404;8.248;2022-12-29T00:12:18;20.00;39.30
30148;DHT22;16960;49.404;8.248;2022-12-29T00:14:45;20.00;39.30
30148;DHT22;16960;49.404;8.248;2022-12-29T00:17:31;20.00;39.30
30148;DHT22;16960;49.404;8.248;2022-12-29T00:19:58;20.00;39.40
30148;DHT22;16960;49.404;8.248;2022-12-29T00:22:42;20.00;39.40
30148;DHT22;16960;49.404;8.248;2022-12-29T00:25:26;20.00;39.40
30148;DHT22;16960;49.404;8.248;2022-12-29T00:28:11;19.90;39.50
30148;DHT22;16960;49.404;8.248;2022-12-29T00:30:59;19.90;39.50
30148;DHT22;16960;49.404;8.248;2022-12-29T00:33:45;19.90;39.60
30148;DHT22;16960;49.404;8.248;2022-12-29T00:36:32;19.90;39.70
30148;DHT22;16960;49.404;8.248;2022-12-29T00:39:03;19.90;39.70
30148;DHT22;16960;49.404;8.248;2022-12-29T00:41:48;19.80;39.70
30148;DHT22;16960;49.404;8.248;2022-12-29T00:44:32;19.80;39.70
30148;DHT22;16960;49.404;8.248;2022-12-29T00:46:59;19.80;39.80
30148;DHT22;16960;49.404;8.248;2022-12-29T00:49:30;19.80;39.90
30148;DHT22;16960;49.404;8.248;2022-12-29T00:51:58;19.80;40.00
30148;DHT22;16960;49.404;8.248;2022-12-29T00:54:26;19.80;40.00
30148;DHT22;16960;49.404;8.248;2022-12-29T00:56:53;19.80;40.00
30148;DHT22;16960;49.404;8.248;2022-12-29T00:59:20;19.80;40.10
30148;DHT22;16960;49.404;8.248;2022-12-29T01:01:50;19.80;40.20
30148;DHT22;16960;49.404;8.248;2022-12-29T01:04:18;19.70;40.20
30148;DHT22;16960;49.404;8.248;2022-12-29T01:06:46;19.70;40.20
30148;DHT22;16960;49.404;8.248;2022-12-29T01:09:13;19.70;40.30
30148;DHT22;16960;49.404;8.248;2022-12-29T01:11:58;19.70;40.30
30148;DHT22;16960;49.404;8.248;2022-12-29T01:14:25;19.70;40.40
30148;DHT22;16960;49.404;8.248;2022-12-29T01:16:53;19.60;40.40
30148;DHT22;16960;49.404;8.248;2022-12-29T01:19:21;19.60;40.40
30148;DHT22;16960;49.404;8.248;2022-12-29T01:21:49;19.60;40.50
30148;DHT22;16960;49.404;8.248;2022-12-29T01:24:17;19.60;40.50
30148;DHT22;16960;49.404;8.248;2022-12-29T01:26:45;19.60;41.20
30148;DHT22;16960;49.404;8.248;2022-12-29T01:29:12;19.60;40.60
30148;DHT22;16960;49.404;8.248;2022-12-29T01:31:38;19.50;40.60
30148;DHT22;16960;49.404;8.248;2022-12-29T01:34:06;19.50;40.70
30148;DHT22;16960;49.404;8.248;2022-12-29T01:36:33;19.50;40.70
30148;DHT22;16960;49.404;8.248;2022-12-29T01:39:01;19.50;40.80
30148;DHT22;16960;49.404;8.248;2022-12-29T01:41:28;19.50;40.90
30148;DHT22;16960;49.404;8.248;2022-12-29T01:43:56;19.50;40.90
30148;DHT22;16960;49.404;8.248;2022-12-29T01:46:28;19.50;41.00
30148;DHT22;16960;49.404;8.248;2022-12-29T01:49:02;19.50;41.10
30148;DHT22;16960;49.404;8.248;2022-12-29T01:51:31;19.40;41.00
30148;DHT22;16960;49.404;8.248;2022-12-29T01:54:03;19.40;41.00
30148;DHT22;16960;49.404;8.248;2022-12-29T01:56:31;19.40;41.10
30148;DHT22;16960;49.404;8.248;2022-12-29T01:59:02;19.40;41.10
30148;DHT22;16960;49.404;8.248;2022-12-29T02:01:30;19.40;41.10
30148;DHT22;16960;49.404;8.248;2022-12-29T02:03:58;19.40;41.10
30148;DHT22;16960;49.404;8.248;2022-12-29T02:06:29;19.40;41.20
30148;DHT22;16960;49.404;8.248;2022-12-29T02:08:58;19.40;41.20
30148;DHT22;16960;49.404;8.248;2022-12-29T02:11:29;19.30;41.20
30148;DHT22;16960;49.404;8.248;2022-12-29T02:13:56;19.30;41.30
30148;DHT22;16960;49.404;8.248;2022-12-29T02:16:31;19.30;41.30
30148;DHT22;16960;49.404;8.248;2022-12-29T02:19:19;19.30;41.40
30148;DHT22;16960;49.404;8.248;2022-12-29T02:22:00;19.30;41.40
30148;DHT22;16960;49.404;8.248;2022-12-29T02:25:00;19.30;41.40
30148;DHT22;16960;49.404;8.248;2022-12-29T02:27:51;19.30;41.50
30148;DHT22;16960;49.404;8.248;2022-12-29T02:30:36;19.30;41.50
30148;DHT22;16960;49.404;8.248;2022-12-29T02:33:10;19.30;41.50
30148;DHT22;16960;49.404;8.248;2022-12-29T02:35:45;19.20;41.40
30148;DHT22;16960;49.404;8.248;2022-12-29T02:38:23;19.30;41.60
30148;DHT22;16960;49.404;8.248;2022-12-29T02:40:55;19.20;41.60
30148;DHT22;16960;49.404;8.248;2022-12-29T02:43:27;19.20;41.60
30148;DHT22;16960;49.404;8.248;2022-12-29T02:46:04;19.20;41.60
30148;DHT22;16960;49.404;8.248;2022-12-29T02:48:40;19.20;41.60
30148;DHT22;16960;49.404;8.248;2022-12-29T02:51:12;19.20;41.60
30148;DHT22;16960;49.404;8.248;2022-12-29T02:53:43;19.20;41.60
30148;DHT22;16960;49.404;8.248;2022-12-29T02:56:28;19.10;41.60
30148;DHT22;16960;49.404;8.248;2022-12-29T02:58:55;19.20;41.60
30148;DHT22;16960;49.404;8.248;2022-12-29T03:01:34;19.10;41.60
30148;DHT22;16960;49.404;8.248;2022-12-29T03:04:12;19.20;41.70
30148;DHT22;16960;49.404;8.248;2022-12-29T03:06:49;19.10;41.60
30148;DHT22;16960;49.404;8.248;2022-12-29T03:09:26;19.10;41.70
30148;DHT22;16960;49.404;8.248;2022-12-29T03:11:59;19.10;41.70
30148;DHT22;16960;49.404;8.248;2022-12-29T03:14:48;19.10;41.80
30148;DHT22;16960;49.404;8.248;2022-12-29T03:17:43;19.10;41.70
30148;DHT22;16960;49.404;8.248;2022-12-29T03:20:14;19.10;41.70
30148;DHT22;16960;49.404;8.248;2022-12-29T03:22:45;19.10;41.70
30148;DHT22;16960;49.404;8.248;2022-12-29T03:25:18;19.10;41.70
30148;DHT22;16960;49.404;8.248;2022-12-29T03:27:49;19.00;41.60
30148;DHT22;16960;49.404;8.248;2022-12-29T03:30:18;19.10;41.70
30148;DHT22;16960;49.404;8.248;2022-12-29T03:32:48;19.10;41.70
30148;DHT22;16960;49.404;8.248;2022-12-29T03:35:18;19.10;41.60
30148;DHT22;16960;49.404;8.248;2022-12-29T03:37:52;19.10;41.70
30148;DHT22;16960;49.404;8.248;2022-12-29T03:40:23;19.00;41.50
30148;DHT22;16960;49.404;8.248;2022-12-29T03:42:51;19.00;41.50
30148;DHT22;16960;49.404;8.248;2022-12-29T03:45:19;19.00;41.50
30148;DHT22;16960;49.404;8.248;2022-12-29T03:47:48;19.00;41.50
30148;DHT22;16960;49.404;8.248;2022-12-29T03:50:15;19.00;41.50
30148;DHT22;16960;49.404;8.248;2022-12-29T03:52:42;19.00;41.60
30148;DHT22;16960;49.404;8.248;2022-12-29T03:55:09;19.00;41.50
30148;DHT22;16960;49.404;8.248;2022-12-29T03:57:36;19.00;41.60
30148;DHT22;16960;49.404;8.248;2022-12-29T04:00:04;19.00;41.60
30148;DHT22;16960;49.404;8.248;2022-12-29T04:02:32;19.00;41.60
30148;DHT22;16960;49.404;8.248;2022-12-29T04:05:00;19.00;41.70
30148;DHT22;16960;49.404;8.248;2022-12-29T04:07:27;19.00;41.60
30148;DHT22;16960;49.404;8.248;2022-12-29T04:09:54;19.00;41.70
30148;DHT22;16960;49.404;8.248;2022-12-29T04:12:21;19.00;41.60
30148;DHT22;16960;49.404;8.248;2022-12-29T04:14:48;19.00;41.60
30148;DHT22;16960;49.404;8.248;2022-12-29T04:17:14;18.90;41.60
30148;DHT22;16960;49.404;8.248;2022-12-29T04:19:41;19.00;41.60
30148;DHT22;16960;49.404;8.248;2022-12-29T04:22:10;19.00;41.60
30148;DHT22;16960;49.404;8.248;2022-12-29T04:24:37;19.00;41.60
30148;DHT22;16960;49.404;8.248;2022-12-29T04:27:04;18.90;41.60
30148;DHT22;16960;49.404;8.248;2022-12-29T04:29:30;19.00;41.60
30148;DHT22;16960;49.404;8.248;2022-12-29T04:31:57;19.00;41.60
30148;DHT22;16960;49.404;8.248;2022-12-29T04:34:24;19.00;41.50
30148;DHT22;16960;49.404;8.248;2022-12-29T04:36:51;19.00;41.60
30148;DHT22;16960;49.404;8.248;2022-12-29T04:39:19;18.90;41.60
30148;DHT22;16960;49.404;8.248;2022-12-29T04:41:46;19.00;41.70
30148;DHT22;16960;49.404;8.248;2022-12-29T04:44:13;18.90;41.60
30148;DHT22;16960;49.404;8.248;2022-12-29T04:46:40;19.00;41.70
30148;DHT22;16960;49.404;8.248;2022-12-29T04:49:07;18.90;41.70
30148;DHT22;16960;49.404;8.248;2022-12-29T04:51:34;18.90;41.80
30148;DHT22;16960;49.404;8.248;2022-12-29T04:54:02;18.90;41.80
30148;DHT22;16960;49.404;8.248;2022-12-29T04:56:30;18.90;41.80
30148;DHT22;16960;49.404;8.248;2022-12-29T04:58:57;18.90;41.70
30148;DHT22;16960;49.404;8.248;2022-12-29T05:01:24;18.90;41.80
30148;DHT22;16960;49.404;8.248;2022-12-29T05:03:51;18.90;41.80
30148;DHT22;16960;49.404;8.248;2022-12-29T05:06:18;18.90;41.80
30148;DHT22;16960;49.404;8.248;2022-12-29T05:08:45;18.90;41.80
30148;DHT22;16960;49.404;8.248;2022-12-29T05:11:12;18.90;41.70
30148;DHT22;16960;49.404;8.248;2022-12-29T05:13:40;18.90;41.80
30148;DHT22;16960;49.404;8.248;2022-12-29T05:16:07;18.90;41.80
30148;DHT22;16960;49.404;8.248;2022-12-29T05:18:34;19.00;41.70
30148;DHT22;16960;49.404;8.248;2022-12-29T05:21:00;19.00;41.70
30148;DHT22;16960;49.404;8.248;2022-12-29T05:23:27;19.10;41.60
30148;DHT22;16960;49.404;8.248;2022-12-29T05:25:54;19.10;41.60
30148;DHT22;16960;49.404;8.248;2022-12-29T05:28:21;19.10;41.40
30148;DHT22;16960;49.404;8.248;2022-12-29T05:30:50;19.10;41.40
30148;DHT22;16960;49.404;8.248;2022-12-29T05:33:17;19.20;41.30
30148;DHT22;16960;49.404;8.248;2022-12-29T05:35:45;19.20;41.30
30148;DHT22;16960;49.404;8.248;2022-12-29T05:38:12;19.20;41.30
30148;DHT22;16960;49.404;8.248;2022-12-29T05:40:38;19.30;41.30
30148;DHT22;16960;49.404;8.248;2022-12-29T05:43:05;19.30;41.30
30148;DHT22;16960;49.404;8.248;2022-12-29T05:45:32;19.30;41.20
30148;DHT22;16960;49.404;8.248;2022-12-29T05:48:00;19.40;41.20
30148;DHT22;16960;49.404;8.248;2022-12-29T05:50:30;19.40;41.20
30148;DHT22;16960;49.404;8.248;2022-12-29T05:52:57;19.40;41.20
30148;DHT22;16960;49.404;8.248;2022-12-29T05:55:23;19.40;41.20
30148;DHT22;16960;49.404;8.248;2022-12-29T05:57:50;19.40;41.10
30148;DHT22;16960;49.404;8.248;2022-12-29T06:00:17;19.40;41.10
30148;DHT22;16960;49.404;8.248;2022-12-29T06:02:44;19.40;41.10
30148;DHT22;16960;49.404;8.248;2022-12-29T06:05:13;19.50;41.10
30148;DHT22;16960;49.404;8.248;2022-12-29T06:07:40;19.50;41.10
30148;DHT22;16960;49.404;8.248;2022-12-29T06:10:07;19.50;41.10
30148;DHT22;16960;49.404;8.248;2022-12-29T06:12:34;19.50;41.10
30148;DHT22;16960;49.404;8.248;2022-12-29T06:15:01;19.50;41.00
30148;DHT22;16960;49.404;8.248;2022-12-29T06:17:28;19.50;41.00
30148;DHT22;16960;49.404;8.248;2022-12-29T06:19:55;19.50;40.90
30148;DHT22;16960;49.404;8.248;2022-12-29T06:22:23;19.60;40.90
30148;DHT22;16960;49.404;8.248;2022-12-29T06:24:50;19.60;40.90
30148;DHT22;16960;49.404;8.248;2022-12-29T06:27:17;19.60;40.80
30148;DHT22;16960;49.404;8.248;2022-12-29T06:29:44;19.60;40.90
30148;DHT22;16960;49.404;8.248;2022-12-29T06:32:11;19.60;40.90
30148;DHT22;16960;49.404;8.248;2022-12-29T06:34:38;19.60;40.90
30148;DHT22;16960;49.404;8.248;2022-12-29T06:37:05;19.70;40.90
30148;DHT22;16960;49.404;8.248;2022-12-29T06:39:33;19.60;40.80
30148;DHT22;16960;49.404;8.248;2022-12-29T06:42:00;19.70;40.90
30148;DHT22;16960;49.404;8.248;2022-12-29T06:44:27;19.70;40.90
30148;DHT22;16960;49.404;8.248;2022-12-29T06:46:54;19.80;40.90
30148;DHT22;16960;49.404;8.248;2022-12-29T06:49:21;19.70;40.80
30148;DHT22;16960;49.404;8.248;2022-12-29T06:51:48;19.70;40.90
30148;DHT22;16960;49.404;8.248;2022-12-29T06:54:15;19.70;40.90
30148;DHT22;16960;49.404;8.248;2022-12-29T06:56:44;19.80;40.90
30148;DHT22;16960;49.404;8.248;2022-12-29T06:59:11;19.80;40.80
30148;DHT22;16960;49.404;8.248;2022-12-29T07:01:37;19.80;40.70
30148;DHT22;16960;49.404;8.248;2022-12-29T07:04:05;19.80;40.70
30148;DHT22;16960;49.404;8.248;2022-12-29T07:06:31;19.90;40.70
30148;DHT22;16960;49.404;8.248;2022-12-29T07:08:58;19.80;40.50
30148;DHT22;16960;49.404;8.248;2022-12-29T07:11:25;19.90;40.50
30148;DHT22;16960;49.404;8.248;2022-12-29T07:13:54;19.80;40.30
30148;DHT22;16960;49.404;8.248;2022-12-29T07:16:21;19.90;40.40
30148;DHT22;16960;49.404;8.248;2022-12-29T07:18:48;19.90;40.30
30148;DHT22;16960;49.404;8.248;2022-12-29T07:21:15;19.90;40.10
30148;DHT22;16960;49.404;8.248;2022-12-29T07:23:42;19.90;40.30
30148;DHT22;16960;49.404;8.248;2022-12-29T07:26:11;19.90;40.40
30148;DHT22;16960;49.404;8.248;2022-12-29T07:28:38;19.80;40.10
30148;DHT22;16960;49.404;8.248;2022-12-29T07:31:13;19.90;40.10
30148;DHT22;16960;49.404;8.248;2022-12-29T07:33:41;19.80;39.80
30148;DHT22;16960;49.404;8.248;2022-12-29T07:36:09;19.80;39.70
30148;DHT22;16960;49.404;8.248;2022-12-29T07:38:36;19.80;39.70
30148;DHT22;16960;49.404;8.248;2022-12-29T07:41:03;19.90;40.40
30148;DHT22;16960;49.404;8.248;2022-12-29T07:43:30;19.90;39.70
30148;DHT22;16960;49.404;8.248;2022-12-29T07:45:57;19.90;39.70
30148;DHT22;16960;49.404;8.248;2022-12-29T07:48:25;19.90;39.70
30148;DHT22;16960;49.404;8.248;2022-12-29T07:50:52;19.90;39.70
30148;DHT22;16960;49.404;8.248;2022-12-29T07:53:19;20.00;39.60
30148;DHT22;16960;49.404;8.248;2022-12-29T07:55:46;19.90;39.60
30148;DHT22;16960;49.404;8.248;2022-12-29T07:58:13;20.00;39.60
30148;DHT22;16960;49.404;8.248;2022-12-29T08:00:40;20.00;39.60
30148;DHT22;16960;49.404;8.248;2022-12-29T08:03:07;20.00;39.60
30148;DHT22;16960;49.404;8.248;2022-12-29T08:05:35;20.00;39.60
30148;DHT22;16960;49.404;8.248;2022-12-29T08:08:02;20.00;39.50
30148;DHT22;16960;49.404;8.248;2022-12-29T08:10:29;20.00;39.50
30148;DHT22;16960;49.404;8.248;2022-12-29T08:12:56;20.00;39.40
30148;DHT22;16960;49.404;8.248;2022-12-29T08:15:24;20.00;39.40
30148;DHT22;16960;49.404;8.248;2022-12-29T08:17:51;20.00;39.40
30148;DHT22;16960;49.404;8.248;2022-12-29T08:20:17;20.00;39.50
30148;DHT22;16960;49.404;8.248;2022-12-29T08:22:46;20.00;39.50
30148;DHT22;16960;49.404;8.248;2022-12-29T08:25:13;20.10;39.80
30148;DHT22;16960;49.404;8.248;2022-12-29T08:27:40;20.10;39.80
30148;DHT22;16960;49.404;8.248;2022-12-29T08:30:08;20.10;39.80
30148;DHT22;16960;49.404;8.248;2022-12-29T08:32:35;20.10;39.80
30148;DHT22;16960;49.404;8.248;2022-12-29T08:35:03;20.10;39.80
30148;DHT22;16960;49.404;8.248;2022-12-29T08:37:30;20.10;39.80
30148;DHT22;16960;49.404;8.248;2022-12-29T08:40:00;20.10;39.70
30148;DHT22;16960;49.404;8.248;2022-12-29T08:42:29;20.10;39.70
30148;DHT22;16960;49.404;8.248;2022-12-29T08:44:56;20.10;39.70
30148;DHT22;16960;49.404;8.248;2022-12-29T08:47:23;20.10;39.70
30148;DHT22;16960;49.404;8.248;2022-12-29T08:49:50;20.10;39.70
30148;DHT22;16960;49.404;8.248;2022-12-29T08:52:17;20.10;39.70
30148;DHT22;16960;49.404;8.248;2022-12-29T08:54:44;20.10;39.70
30148;DHT22;16960;49.404;8.248;2022-12-29T08:57:12;20.10;39.80
30148;DHT22;16960;49.404;8.248;2022-12-29T08:59:39;20.20;39.80
30148;DHT22;16960;49.404;8.248;2022-12-29T09:02:10;20.10;39.80
30148;DHT22;16960;49.404;8.248;2022-12-29T09:04:37;20.20;39.80
30148;DHT22;16960;49.404;8.248;2022-12-29T09:07:04;20.20;39.90
30148;DHT22;16960;49.404;8.248;2022-12-29T09:09:31;20.20;39.80
30148;DHT22;16960;49.404;8.248;2022-12-29T09:11:58;20.20;39.90
30148;DHT22;16960;49.404;8.248;2022-12-29T09:14:27;20.20;39.90
30148;DHT22;16960;49.404;8.248;2022-12-29T09:16:54;20.20;39.90
30148;DHT22;16960;49.404;8.248;2022-12-29T09:19:38;20.20;39.90
30148;DHT22;16960;49.404;8.248;2022-12-29T09:22:05;20.20;39.90
30148;DHT22;16960;49.404;8.248;2022-12-29T09:24:32;20.10;39.90
30148;DHT22;16960;49.404;8.248;2022-12-29T09:26:59;20.20;39.90
30148;DHT22;16960;49.404;8.248;2022-12-29T09:29:27;20.20;39.90
30148;DHT22;16960;49.404;8.248;2022-12-29T09:31:54;20.20;39.90
30148;DHT22;16960;49.404;8.248;2022-12-29T09:34:21;20.20;39.90
30148;DHT22;16960;49.404;8.248;2022-12-29T09:36:48;20.20;39.90
30148;DHT22;16960;49.404;8.248;2022-12-29T09:39:15;20.20;40.00
30148;DHT22;16960;49.404;8.248;2022-12-29T09:41:47;20.20;40.00
30148;DHT22;16960;49.404;8.248;2022-12-29T09:44:21;20.20;40.00
30148;DHT22;16960;49.404;8.248;2022-12-29T09:46:53;20.20;40.00
30148;DHT22;16960;49.404;8.248;2022-12-29T09:49:25;20.20;40.00
30148;DHT22;16960;49.404;8.248;2022-12-29T09:51:54;20.20;40.10
30148;DHT22;16960;49.404;8.248;2022-12-29T09:54:37;20.20;40.10
30148;DHT22;16960;49.404;8.248;2022-12-29T09:57:21;20.20;40.10
30148;DHT22;16960;49.404;8.248;2022-12-29T09:59:51;20.20;40.20
30148;DHT22;16960;49.404;8.248;2022-12-29T10:02:31;20.20;40.20
30148;DHT22;16960;49.404;8.248;2022-12-29T10:04:58;20.20;40.20
30148;DHT22;16960;49.404;8.248;2022-12-29T10:07:36;20.20;40.20
30148;DHT22;16960;49.404;8.248;2022-12-29T10:10:16;20.20;40.10
30148;DHT22;16960;49.404;8.248;2022-12-29T10:12:56;20.30;40.20
30148;DHT22;16960;49.404;8.248;2022-12-29T10:15:38;20.30;40.20
30148;DHT22;16960;49.404;8.248;2022-12-29T10:18:22;20.30;40.20
30148;DHT22;16960;49.404;8.248;2022-12-29T10:20:54;20.30;40.20
30148;DHT22;16960;49.404;8.248;2022-12-29T10:23:27;20.30;40.10
30148;DHT22;16960;49.404;8.248;2022-12-29T10:25:56;20.30;40.10
30148;DHT22;16960;49.404;8.248;2022-12-29T10:28:29;20.30;40.10
30148;DHT22;16960;49.404;8.248;2022-12-29T10:31:00;20.30;40.10
30148;DHT22;16960;49.404;8.248;2022-12-29T10:33:34;20.40;40.10
30148;DHT22;16960;49.404;8.248;2022-12-29T10:36:15;20.30;40.10
30148;DHT22;16960;49.404;8.248;2022-12-29T10:38:48;20.30;40.80
30148;DHT22;16960;49.404;8.248;2022-12-29T10:41:21;20.40;40.00
30148;DHT22;16960;49.404;8.248;2022-12-29T10:43:52;20.40;40.10
30148;DHT22;16960;49.404;8.248;2022-12-29T10:46:23;20.40;40.00
30148;DHT22;16960;49.404;8.248;2022-12-29T10:48:51;20.40;40.00
30148;DHT22;16960;49.404;8.248;2022-12-29T10:51:21;20.40;40.00
30148;DHT22;16960;49.404;8.248;2022-12-29T10:53:52;20.40;40.00
30148;DHT22;16960;49.404;8.248;2022-12-29T10:56:28;20.40;40.00
30148;DHT22;16960;49.404;8.248;2022-12-29T10:59:00;20.40;40.00
30148;DHT22;16960;49.404;8.248;2022-12-29T11:01:34;20.40;40.00
30148;DHT22;16960;49.404;8.248;2022-12-29T11:04:12;20.50;40.10
30148;DHT22;16960;49.404;8.248;2022-12-29T11:06:43;20.40;40.00
30148;DHT22;16960;49.404;8.248;2022-12-29T11:09:16;20.50;40.10
30148;DHT22;16960;49.404;8.248;2022-12-29T11:11:45;20.50;40.00
30148;DHT22;16960;49.404;8.248;2022-12-29T11:14:14;20.50;40.00
30148;DHT22;16960;49.404;8.248;2022-12-29T11:16:41;20.50;40.10
30148;DHT22;16960;49.404;8.248;2022-12-29T11:19:22;20.50;40.10
30148;DHT22;16960;49.404;8.248;2022-12-29T11:21:50;20.50;40.00
30148;DHT22;16960;49.404;8.248;2022-12-29T11:24:22;20.50;40.00
30148;DHT22;16960;49.404;8.248;2022-12-29T11:26:51;20.50;40.00
30148;DHT22;16960;49.404;8.248;2022-12-29T11:29:27;20.50;40.00
30148;DHT22;16960;49.404;8.248;2022-12-29T11:31:56;20.50;40.00
30148;DHT22;16960;49.404;8.248;2022-12-29T11:34:30;20.50;39.90
30148;DHT22;16960;49.404;8.248;2022-12-29T11:37:00;20.50;39.90
30148;DHT22;16960;49.404;8.248;2022-12-29T11:39:36;20.60;39.90
30148;DHT22;16960;49.404;8.248;2022-12-29T11:42:06;20.60;39.90
30148;DHT22;16960;49.404;8.248;2022-12-29T11:44:43;20.60;39.90
30148;DHT22;16960;49.404;8.248;2022-12-29T11:47:19;20.60;39.80
30148;DHT22;16960;49.404;8.248;2022-12-29T11:49:51;20.60;39.80
30148;DHT22;16960;49.404;8.248;2022-12-29T11:52:27;20.60;39.90
30148;DHT22;16960;49.404;8.248;2022-12-29T11:54:56;20.60;39.80
30148;DHT22;16960;49.404;8.248;2022-12-29T11:57:23;20.60;39.80
30148;DHT22;16960;49.404;8.248;2022-12-29T11:59:52;20.60;40.00
30148;DHT22;16960;49.404;8.248;2022-12-29T12:02:49;20.60;39.90
30148;DHT22;16960;49.404;8.248;2022-12-29T12:05:24;20.60;40.00
30148;DHT22;16960;49.404;8.248;2022-12-29T12:07:59;20.60;40.00
30148;DHT22;16960;49.404;8.248;2022-12-29T12:10:32;20.60;40.10
30148;DHT22;16960;49.404;8.248;2022-12-29T12:13:11;20.60;40.00
30148;DHT22;16960;49.404;8.248;2022-12-29T12:15:52;20.60;40.10
30148;DHT22;16960;49.404;8.248;2022-12-29T12:18:33;20.60;40.10
30148;DHT22;16960;49.404;8.248;2022-12-29T12:21:10;20.60;40.10
30148;DHT22;16960;49.404;8.248;2022-12-29T12:23:47;20.60;40.10
30148;DHT22;16960;49.404;8.248;2022-12-29T12:26:21;20.60;40.10
30148;DHT22;16960;49.404;8.248;2022-12-29T12:28:52;20.60;40.10
30148;DHT22;16960;49.404;8.248;2022-12-29T12:31:30;20.70;40.10
30148;DHT22;16960;49.404;8.248;2022-12-29T12:34:04;20.70;40.10
30148;DHT22;16960;49.404;8.248;2022-12-29T12:39:56;20.70;40.10
30148;DHT22;16960;49.404;8.248;2022-12-29T12:42:38;20.70;40.20
30148;DHT22;16960;49.404;8.248;2022-12-29T12:45:32;20.70;40.20
30148;DHT22;16960;49.404;8.248;2022-12-29T12:48:12;20.70;40.20
30148;DHT22;16960;49.404;8.248;2022-12-29T12:50:49;20.70;40.30
30148;DHT22;16960;49.404;8.248;2022-12-29T12:53:41;20.70;40.30
30148;DHT22;16960;49.404;8.248;2022-12-29T12:56:28;20.80;40.40
30148;DHT22;16960;49.404;8.248;2022-12-29T12:59:02;20.70;40.40
30148;DHT22;16960;49.404;8.248;2022-12-29T13:01:40;20.80;40.40
30148;DHT22;16960;49.404;8.248;2022-12-29T13:07:25;20.80;40.40
30148;DHT22;16960;49.404;8.248;2022-12-29T13:10:13;20.80;40.40
30148;DHT22;16960;49.404;8.248;2022-12-29T13:12:47;20.80;40.40
30148;DHT22;16960;49.404;8.248;2022-12-29T13:15:28;20.80;40.40
30148;DHT22;16960;49.404;8.248;2022-12-29T13:18:04;20.80;40.40
30148;DHT22;16960;49.404;8.248;2022-12-29T13:20:38;20.80;40.30
30148;DHT22;16960;49.404;8.248;2022-12-29T13:23:11;20.80;40.30
30148;DHT22;16960;49.404;8.248;2022-12-29T13:25:50;20.80;40.30
30148;DHT22;16960;49.404;8.248;2022-12-29T13:28:26;20.80;40.30
30148;DHT22;16960;49.404;8.248;2022-12-29T13:31:00;20.80;40.30
30148;DHT22;16960;49.404;8.248;2022-12-29T13:33:34;20.80;40.30
30148;DHT22;16960;49.404;8.248;2022-12-29T13:36:10;20.80;40.40
30148;DHT22;16960;49.404;8.248;2022-12-29T13:38:41;20.70;40.30
30148;DHT22;16960;49.404;8.248;2022-12-29T13:41:13;20.70;40.40
30148;DHT22;16960;49.404;8.248;2022-12-29T13:43:42;20.70;40.30
30148;DHT22;16960;49.404;8.248;2022-12-29T13:46:14;20.70;40.30
30148;DHT22;16960;49.404;8.248;2022-12-29T13:48:46;20.70;40.30
30148;DHT22;16960;49.404;8.248;2022-12-29T13:51:16;20.70;40.30
30148;DHT22;16960;49.404;8.248;2022-12-29T13:53:58;20.70;40.30
30148;DHT22;16960;49.404;8.248;2022-12-29T13:56:33;20.70;40.40
30148;DHT22;16960;49.404;8.248;2022-12-29T13:59:09;20.70;40.40
30148;DHT22;16960;49.404;8.248;2022-12-29T14:01:41;20.70;40.30
30148;DHT22;16960;49.404;8.248;2022-12-29T14:04:11;20.70;40.30
30148;DHT22;16960;49.404;8.248;2022-12-29T14:06:39;20.70;40.30
30148;DHT22;16960;49.404;8.248;2022-12-29T14:09:39;20.70;40.30
30148;DHT22;16960;49.404;8.248;2022-12-29T14:12:22;20.70;40.30
30148;DHT22;16960;49.404;8.248;2022-12-29T14:14:52;20.70;40.30
30148;DHT22;16960;49.404;8.248;2022-12-29T14:17:21;20.70;40.30
30148;DHT22;16960;49.404;8.248;2022-12-29T14:19:52;20.70;40.20
30148;DHT22;16960;49.404;8.248;2022-12-29T14:22:23;20.70;40.20
30148;DHT22;16960;49.404;8.248;2022-12-29T14:24:51;20.70;40.20
30148;DHT22;16960;49.404;8.248;2022-12-29T14:27:53;20.70;40.20
30148;DHT22;16960;49.404;8.248;2022-12-29T14:30:49;20.70;40.20
30148;DHT22;16960;49.404;8.248;2022-12-29T14:33:16;20.70;40.20
30148;DHT22;16960;49.404;8.248;2022-12-29T14:35:45;20.70;40.20
30148;DHT22;16960;49.404;8.248;2022-12-29T14:38:17;20.70;40.20
30148;DHT22;16960;49.404;8.248;2022-12-29T14:40:45;20.70;40.30
30148;DHT22;16960;49.404;8.248;2022-12-29T14:43:20;20.70;40.20
30148;DHT22;16960;49.404;8.248;2022-12-29T14:45:57;20.70;40.20
30148;DHT22;16960;49.404;8.248;2022-12-29T14:48:35;20.70;40.20
30148;DHT22;16960;49.404;8.248;2022-12-29T14:51:20;20.70;40.20
30148;DHT22;16960;49.404;8.248;2022-12-29T14:53:49;20.70;40.20
30148;DHT22;16960;49.404;8.248;2022-12-29T14:56:18;20.70;40.20
30148;DHT22;16960;49.404;8.248;2022-12-29T14:58:52;20.70;40.20
30148;DHT22;16960;49.404;8.248;2022-12-29T15:01:24;20.70;40.90
30148;DHT22;16960;49.404;8.248;2022-12-29T15:03:56;20.70;40.20
30148;DHT22;16960;49.404;8.248;2022-12-29T15:06:25;20.70;40.10
30148;DHT22;16960;49.404;8.248;2022-12-29T15:08:59;20.70;40.10
30148;DHT22;16960;49.404;8.248;2022-12-29T15:11:41;20.70;40.10
30148;DHT22;16960;49.404;8.248;2022-12-29T15:14:34;20.70;40.10
30148;DHT22;16960;49.404;8.248;2022-12-29T15:17:09;20.70;40.10
30148;DHT22;16960;49.404;8.248;2022-12-29T15:19:37;20.70;40.10
30148;DHT22;16960;49.404;8.248;2022-12-29T15:22:04;20.70;40.10
30148;DHT22;16960;49.404;8.248;2022-12-29T15:24:31;20.70;40.10
30148;DHT22;16960;49.404;8.248;2022-12-29T15:27:03;20.70;40.10
30148;DHT22;16960;49.404;8.248;2022-12-29T15:29:36;20.70;40.10
30148;DHT22;16960;49.404;8.248;2022-12-29T15:32:18;20.70;40.10
30148;DHT22;16960;49.404;8.248;2022-12-29T15:34:48;20.70;40.10
30148;DHT22;16960;49.404;8.248;2022-12-29T15:37:18;20.70;40.00
30148;DHT22;16960;49.404;8.248;2022-12-29T15:39:46;20.70;40.10
30148;DHT22;16960;49.404;8.248;2022-12-29T15:42:26;20.70;40.10
30148;DHT22;16960;49.404;8.248;2022-12-29T15:44:56;20.70;40.10
30148;DHT22;16960;49.404;8.248;2022-12-29T15:47:26;20.70;40.10
30148;DHT22;16960;49.404;8.248;2022-12-29T15:50:00;20.70;40.10
30148;DHT22;16960;49.404;8.248;2022-12-29T15:52:29;20.70;40.10
30148;DHT22;16960;49.404;8.248;2022-12-29T15:54:58;20.70;40.10
30148;DHT22;16960;49.404;8.248;2022-12-29T15:57:27;20.70;40.00
30148;DHT22;16960;49.404;8.248;2022-12-29T15:59:56;20.70;40.10
30148;DHT22;16960;49.404;8.248;2022-12-29T16:02:24;20.70;40.10